sensor_id;sensor_type;location;lat;lon;timestamp;P1;durP1;ratioP1;P2;durP2;ratioP2
30020;SDS011;16861;52.294;7.760;2023-07-13T00:01:31;6.80;;;1.80;;
30020;SDS011;16861;52.294;7.760;2023-07-13T00:03:59;5.95;;;1.80;;
30020;SDS011;16861;52.294;7.760;2023-07-13T00:06:26;6.38;;;1.60;;
30020;SDS011;16861;52.294;7.760;2023-07-13T00:08:56;4.07;;;1.50;;
30020;SDS011;16861;52.294;7.760;2023-07-13T00:11:22;5.82;;;1.70;;
30020;SDS011;16861;52.294;7.760;2023-07-13T00:13:49;5.53;;;1.58;;
30020;SDS011;16861;52.294;7.760;2023-07-13T00:16:15;7.38;;;1.95;;
30020;SDS011;16861;52.294;7.760;2023-07-13T00:18:42;7.07;;;2.03;;
30020;SDS011;16861;52.294;7.760;2023-07-13T00:21:08;8.13;;;1.65;;
30020;SDS011;16861;52.294;7.760;2023-07-13T00:23:35;7.43;;;1.75;;
30020;SDS011;16861;52.294;7.760;2023-07-13T00:26:04;5.15;;;1.58;;
30020;SDS011;16861;52.294;7.760;2023-07-13T00:28:32;4.00;;;1.40;;
30020;SDS011;16861;52.294;7.760;2023-07-13T00:30:59;5.35;;;1.88;;
30020;SDS011;16861;52.294;7.760;2023-07-13T00:33:27;4.22;;;1.55;;
30020;SDS011;16861;52.294;7.760;2023-07-13T00:35:55;6.47;;;1.55;;
30020;SDS011;16861;52.294;7.760;2023-07-13T00:38:22;11.45;;;2.30;;
30020;SDS011;16861;52.294;7.760;2023-07-13T00:40:49;6.47;;;1.77;;
30020;SDS011;16861;52.294;7.760;2023-07-13T00:43:20;8.48;;;2.20;;
30020;SDS011;16861;52.294;7.760;2023-07-13T00:48:16;4.97;;;1.70;;
30020;SDS011;16861;52.294;7.760;2023-07-13T00:50:47;7.85;;;2.00;;
30020;SDS011;16861;52.294;7.760;2023-07-13T00:53:16;5.90;;;2.17;;
30020;SDS011;16861;52.294;7.760;2023-07-13T00:55:43;4.78;;;1.88;;
30020;SDS011;16861;52.294;7.760;2023-07-13T00:58:10;6.00;;;1.40;;
30020;SDS011;16861;52.294;7.760;2023-07-13T01:00:37;6.43;;;1.55;;
30020;SDS011;16861;52.294;7.760;2023-07-13T01:03:05;8.23;;;2.10;;
30020;SDS011;16861;52.294;7.760;2023-07-13T01:05:32;5.55;;;2.08;;
30020;SDS011;16861;52.294;7.760;2023-07-13T01:08:01;8.43;;;1.75;;
30020;SDS011;16861;52.294;7.760;2023-07-13T01:10:28;9.43;;;1.90;;
30020;SDS011;16861;52.294;7.760;2023-07-13T01:12:54;10.25;;;1.70;;
30020;SDS011;16861;52.294;7.760;2023-07-13T01:18:12;3.85;;;1.45;;
30020;SDS011;16861;52.294;7.760;2023-07-13T01:20:49;7.45;;;1.85;;
30020;SDS011;16861;52.294;7.760;2023-07-13T01:23:18;8.82;;;2.03;;
30020;SDS011;16861;52.294;7.760;2023-07-13T01:25:45;5.47;;;1.85;;
30020;SDS011;16861;52.294;7.760;2023-07-13T01:28:11;11.10;;;2.72;;
30020;SDS011;16861;52.294;7.760;2023-07-13T01:30:39;8.10;;;1.88;;
30020;SDS011;16861;52.294;7.760;2023-07-13T01:33:07;5.78;;;2.03;;
30020;SDS011;16861;52.294;7.760;2023-07-13T01:35:34;5.50;;;1.90;;
30020;SDS011;16861;52.294;7.760;2023-07-13T01:38:00;6.82;;;1.88;;
30020;SDS011;16861;52.294;7.760;2023-07-13T01:40:28;6.82;;;1.88;;
30020;SDS011;16861;52.294;7.760;2023-07-13T01:42:55;6.50;;;2.35;;
30020;SDS011;16861;52.294;7.760;2023-07-13T01:45:24;7.13;;;2.20;;
30020;SDS011;16861;52.294;7.760;2023-07-13T01:47:50;5.72;;;1.98;;
30020;SDS011;16861;52.294;7.760;2023-07-13T01:50:17;6.55;;;2.13;;
30020;SDS011;16861;52.294;7.760;2023-07-13T01:52:43;8.30;;;2.08;;
30020;SDS011;16861;52.294;7.760;2023-07-13T01:55:10;4.97;;;1.90;;
30020;SDS011;16861;52.294;7.760;2023-07-13T01:57:36;5.30;;;2.25;;
30020;SDS011;16861;52.294;7.760;2023-07-13T02:00:03;10.02;;;2.03;;
30020;SDS011;16861;52.294;7.760;2023-07-13T02:02:32;8.43;;;2.67;;
30020;SDS011;16861;52.294;7.760;2023-07-13T02:04:59;5.05;;;2.22;;
30020;SDS011;16861;52.294;7.760;2023-07-13T02:07:25;6.18;;;2.35;;
30020;SDS011;16861;52.294;7.760;2023-07-13T02:09:52;6.00;;;2.22;;
30020;SDS011;16861;52.294;7.760;2023-07-13T02:12:18;7.78;;;2.03;;
30020;SDS011;16861;52.294;7.760;2023-07-13T02:14:44;6.13;;;2.20;;
30020;SDS011;16861;52.294;7.760;2023-07-13T02:17:11;8.60;;;2.20;;
30020;SDS011;16861;52.294;7.760;2023-07-13T02:19:39;7.45;;;2.10;;
30020;SDS011;16861;52.294;7.760;2023-07-13T02:22:06;11.25;;;2.22;;
30020;SDS011;16861;52.294;7.760;2023-07-13T02:24:32;9.82;;;2.53;;
30020;SDS011;16861;52.294;7.760;2023-07-13T02:26:59;7.25;;;2.70;;
30020;SDS011;16861;52.294;7.760;2023-07-13T02:29:25;9.25;;;2.70;;
30020;SDS011;16861;52.294;7.760;2023-07-13T02:31:52;6.10;;;2.63;;
30020;SDS011;16861;52.294;7.760;2023-07-13T02:34:18;6.38;;;2.58;;
30020;SDS011;16861;52.294;7.760;2023-07-13T02:36:44;4.90;;;2.20;;
30020;SDS011;16861;52.294;7.760;2023-07-13T02:39:11;7.88;;;2.33;;
30020;SDS011;16861;52.294;7.760;2023-07-13T02:44:25;7.28;;;2.22;;
30020;SDS011;16861;52.294;7.760;2023-07-13T02:46:52;5.30;;;2.65;;
30020;SDS011;16861;52.294;7.760;2023-07-13T02:49:19;5.65;;;2.40;;
30020;SDS011;16861;52.294;7.760;2023-07-13T02:51:46;9.45;;;2.53;;
30020;SDS011;16861;52.294;7.760;2023-07-13T02:54:13;6.63;;;2.38;;
30020;SDS011;16861;52.294;7.760;2023-07-13T02:56:40;8.98;;;2.40;;
30020;SDS011;16861;52.294;7.760;2023-07-13T02:59:07;6.05;;;2.30;;
30020;SDS011;16861;52.294;7.760;2023-07-13T03:01:33;6.15;;;2.42;;
30020;SDS011;16861;52.294;7.760;2023-07-13T03:04:02;5.25;;;2.13;;
30020;SDS011;16861;52.294;7.760;2023-07-13T03:06:30;7.00;;;2.38;;
30020;SDS011;16861;52.294;7.760;2023-07-13T03:08:58;8.18;;;2.65;;
30020;SDS011;16861;52.294;7.760;2023-07-13T03:11:26;8.15;;;2.17;;
30020;SDS011;16861;52.294;7.760;2023-07-13T03:13:54;5.70;;;1.92;;
30020;SDS011;16861;52.294;7.760;2023-07-13T03:16:21;7.25;;;2.40;;
30020;SDS011;16861;52.294;7.760;2023-07-13T03:18:49;9.77;;;2.38;;
30020;SDS011;16861;52.294;7.760;2023-07-13T03:21:16;9.90;;;2.58;;
30020;SDS011;16861;52.294;7.760;2023-07-13T03:23:42;8.82;;;2.33;;
30020;SDS011;16861;52.294;7.760;2023-07-13T03:26:10;5.20;;;2.20;;
30020;SDS011;16861;52.294;7.760;2023-07-13T03:28:40;6.03;;;2.10;;
30020;SDS011;16861;52.294;7.760;2023-07-13T03:31:08;8.52;;;2.40;;
30020;SDS011;16861;52.294;7.760;2023-07-13T03:33:37;6.32;;;2.38;;
30020;SDS011;16861;52.294;7.760;2023-07-13T03:36:05;6.40;;;1.90;;
30020;SDS011;16861;52.294;7.760;2023-07-13T03:38:33;11.50;;;2.55;;
30020;SDS011;16861;52.294;7.760;2023-07-13T03:40:59;7.28;;;2.60;;
30020;SDS011;16861;52.294;7.760;2023-07-13T03:43:27;5.18;;;2.03;;
30020;SDS011;16861;52.294;7.760;2023-07-13T03:45:53;8.30;;;2.10;;
30020;SDS011;16861;52.294;7.760;2023-07-13T03:48:20;8.85;;;2.20;;
30020;SDS011;16861;52.294;7.760;2023-07-13T03:50:47;5.90;;;2.42;;
30020;SDS011;16861;52.294;7.760;2023-07-13T03:53:15;4.72;;;2.05;;
30020;SDS011;16861;52.294;7.760;2023-07-13T03:55:42;6.97;;;2.13;;
30020;SDS011;16861;52.294;7.760;2023-07-13T04:01:07;4.20;;;2.15;;
30020;SDS011;16861;52.294;7.760;2023-07-13T04:03:35;10.65;;;2.28;;
30020;SDS011;16861;52.294;7.760;2023-07-13T04:06:03;6.38;;;2.05;;
30020;SDS011;16861;52.294;7.760;2023-07-13T04:08:32;5.75;;;2.13;;
30020;SDS011;16861;52.294;7.760;2023-07-13T04:11:00;8.63;;;2.78;;
30020;SDS011;16861;52.294;7.760;2023-07-13T04:13:28;4.57;;;2.35;;
30020;SDS011;16861;52.294;7.760;2023-07-13T04:15:55;11.55;;;2.92;;
30020;SDS011;16861;52.294;7.760;2023-07-13T04:18:22;7.72;;;2.90;;
30020;SDS011;16861;52.294;7.760;2023-07-13T04:20:49;5.95;;;2.58;;
30020;SDS011;16861;52.294;7.760;2023-07-13T04:23:16;4.13;;;1.90;;
30020;SDS011;16861;52.294;7.760;2023-07-13T04:25:44;9.40;;;2.38;;
30020;SDS011;16861;52.294;7.760;2023-07-13T04:28:12;8.43;;;2.70;;
30020;SDS011;16861;52.294;7.760;2023-07-13T04:30:39;6.82;;;2.58;;
30020;SDS011;16861;52.294;7.760;2023-07-13T04:33:06;4.72;;;1.95;;
30020;SDS011;16861;52.294;7.760;2023-07-13T04:35:32;5.78;;;2.33;;
30020;SDS011;16861;52.294;7.760;2023-07-13T04:37:59;5.60;;;2.28;;
30020;SDS011;16861;52.294;7.760;2023-07-13T04:40:26;6.68;;;2.50;;
30020;SDS011;16861;52.294;7.760;2023-07-13T04:42:54;10.05;;;3.15;;
30020;SDS011;16861;52.294;7.760;2023-07-13T04:45:20;6.47;;;2.28;;
30020;SDS011;16861;52.294;7.760;2023-07-13T04:47:47;7.22;;;2.58;;
30020;SDS011;16861;52.294;7.760;2023-07-13T04:50:14;6.97;;;2.17;;
30020;SDS011;16861;52.294;7.760;2023-07-13T04:52:52;8.13;;;2.38;;
30020;SDS011;16861;52.294;7.760;2023-07-13T04:55:19;4.95;;;2.17;;
30020;SDS011;16861;52.294;7.760;2023-07-13T04:57:46;4.78;;;2.17;;
30020;SDS011;16861;52.294;7.760;2023-07-13T05:00:13;7.05;;;2.35;;
30020;SDS011;16861;52.294;7.760;2023-07-13T05:02:43;4.85;;;2.05;;
30020;SDS011;16861;52.294;7.760;2023-07-13T05:05:12;7.85;;;2.17;;
30020;SDS011;16861;52.294;7.760;2023-07-13T05:07:39;7.43;;;2.33;;
30020;SDS011;16861;52.294;7.760;2023-07-13T05:10:05;7.15;;;2.63;;
30020;SDS011;16861;52.294;7.760;2023-07-13T05:12:33;10.02;;;2.00;;
30020;SDS011;16861;52.294;7.760;2023-07-13T05:15:00;7.45;;;2.25;;
30020;SDS011;16861;52.294;7.760;2023-07-13T05:17:28;9.65;;;2.30;;
30020;SDS011;16861;52.294;7.760;2023-07-13T05:19:54;9.48;;;2.45;;
30020;SDS011;16861;52.294;7.760;2023-07-13T05:22:21;7.78;;;2.30;;
30020;SDS011;16861;52.294;7.760;2023-07-13T05:24:48;8.27;;;2.72;;
30020;SDS011;16861;52.294;7.760;2023-07-13T05:27:15;6.97;;;2.17;;
30020;SDS011;16861;52.294;7.760;2023-07-13T05:29:41;5.22;;;2.17;;
30020;SDS011;16861;52.294;7.760;2023-07-13T05:32:08;6.30;;;2.03;;
30020;SDS011;16861;52.294;7.760;2023-07-13T05:34:35;10.07;;;3.08;;
30020;SDS011;16861;52.294;7.760;2023-07-13T05:37:01;7.30;;;2.13;;
30020;SDS011;16861;52.294;7.760;2023-07-13T05:39:28;7.03;;;2.45;;
30020;SDS011;16861;52.294;7.760;2023-07-13T05:41:55;6.60;;;2.25;;
30020;SDS011;16861;52.294;7.760;2023-07-13T05:44:21;8.52;;;2.63;;
30020;SDS011;16861;52.294;7.760;2023-07-13T05:46:48;6.63;;;2.78;;
30020;SDS011;16861;52.294;7.760;2023-07-13T05:49:15;5.88;;;2.45;;
30020;SDS011;16861;52.294;7.760;2023-07-13T05:51:42;7.32;;;2.40;;
30020;SDS011;16861;52.294;7.760;2023-07-13T05:54:09;9.30;;;2.50;;
30020;SDS011;16861;52.294;7.760;2023-07-13T05:56:35;6.93;;;2.53;;
30020;SDS011;16861;52.294;7.760;2023-07-13T05:59:02;4.68;;;1.88;;
30020;SDS011;16861;52.294;7.760;2023-07-13T06:01:29;9.73;;;2.60;;
30020;SDS011;16861;52.294;7.760;2023-07-13T06:03:57;7.30;;;2.10;;
30020;SDS011;16861;52.294;7.760;2023-07-13T06:06:24;14.82;;;3.13;;
30020;SDS011;16861;52.294;7.760;2023-07-13T06:08:50;8.50;;;2.78;;
30020;SDS011;16861;52.294;7.760;2023-07-13T06:11:19;6.10;;;2.78;;
30020;SDS011;16861;52.294;7.760;2023-07-13T06:13:47;8.25;;;2.53;;
30020;SDS011;16861;52.294;7.760;2023-07-13T06:16:15;6.10;;;2.58;;
30020;SDS011;16861;52.294;7.760;2023-07-13T06:18:42;9.75;;;2.67;;
30020;SDS011;16861;52.294;7.760;2023-07-13T06:21:12;10.73;;;2.85;;
30020;SDS011;16861;52.294;7.760;2023-07-13T06:23:44;9.40;;;2.85;;
30020;SDS011;16861;52.294;7.760;2023-07-13T06:26:14;7.97;;;2.88;;
30020;SDS011;16861;52.294;7.760;2023-07-13T06:28:41;9.88;;;2.90;;
30020;SDS011;16861;52.294;7.760;2023-07-13T06:31:08;8.80;;;3.28;;
30020;SDS011;16861;52.294;7.760;2023-07-13T06:33:36;6.32;;;2.70;;
30020;SDS011;16861;52.294;7.760;2023-07-13T06:36:04;11.38;;;2.63;;
30020;SDS011;16861;52.294;7.760;2023-07-13T06:38:32;7.82;;;2.85;;
30020;SDS011;16861;52.294;7.760;2023-07-13T06:40:58;9.10;;;2.83;;
30020;SDS011;16861;52.294;7.760;2023-07-13T06:43:25;7.03;;;2.72;;
30020;SDS011;16861;52.294;7.760;2023-07-13T06:45:54;9.20;;;2.72;;
30020;SDS011;16861;52.294;7.760;2023-07-13T06:48:21;6.93;;;2.80;;
30020;SDS011;16861;52.294;7.760;2023-07-13T06:50:49;7.60;;;2.35;;
30020;SDS011;16861;52.294;7.760;2023-07-13T06:53:17;10.13;;;2.78;;
30020;SDS011;16861;52.294;7.760;2023-07-13T06:55:45;7.78;;;3.10;;
30020;SDS011;16861;52.294;7.760;2023-07-13T06:58:12;8.27;;;3.33;;
30020;SDS011;16861;52.294;7.760;2023-07-13T07:00:39;10.73;;;3.47;;
30020;SDS011;16861;52.294;7.760;2023-07-13T07:03:09;7.88;;;2.88;;
30020;SDS011;16861;52.294;7.760;2023-07-13T07:05:36;7.38;;;3.17;;
30020;SDS011;16861;52.294;7.760;2023-07-13T07:08:03;7.88;;;2.75;;
30020;SDS011;16861;52.294;7.760;2023-07-13T07:10:30;7.20;;;2.95;;
30020;SDS011;16861;52.294;7.760;2023-07-13T07:12:58;9.02;;;3.88;;
30020;SDS011;16861;52.294;7.760;2023-07-13T07:15:25;7.30;;;2.58;;
30020;SDS011;16861;52.294;7.760;2023-07-13T07:17:52;11.85;;;3.38;;
30020;SDS011;16861;52.294;7.760;2023-07-13T07:20:19;9.00;;;3.05;;
30020;SDS011;16861;52.294;7.760;2023-07-13T07:22:47;7.38;;;2.42;;
30020;SDS011;16861;52.294;7.760;2023-07-13T07:25:14;5.43;;;2.38;;
30020;SDS011;16861;52.294;7.760;2023-07-13T07:27:41;8.13;;;3.15;;
30020;SDS011;16861;52.294;7.760;2023-07-13T07:30:11;8.02;;;2.92;;
30020;SDS011;16861;52.294;7.760;2023-07-13T07:32:40;6.63;;;2.28;;
30020;SDS011;16861;52.294;7.760;2023-07-13T07:35:22;8.35;;;2.20;;
30020;SDS011;16861;52.294;7.760;2023-07-13T07:37:49;7.65;;;2.72;;
30020;SDS011;16861;52.294;7.760;2023-07-13T07:40:17;7.45;;;2.65;;
30020;SDS011;16861;52.294;7.760;2023-07-13T07:42:47;5.65;;;2.55;;
30020;SDS011;16861;52.294;7.760;2023-07-13T07:45:14;10.48;;;3.22;;
30020;SDS011;16861;52.294;7.760;2023-07-13T07:47:41;5.70;;;2.38;;
30020;SDS011;16861;52.294;7.760;2023-07-13T07:50:08;10.40;;;2.80;;
30020;SDS011;16861;52.294;7.760;2023-07-13T07:52:35;5.72;;;2.42;;
30020;SDS011;16861;52.294;7.760;2023-07-13T07:55:03;7.57;;;2.50;;
30020;SDS011;16861;52.294;7.760;2023-07-13T07:57:34;4.95;;;2.45;;
30020;SDS011;16861;52.294;7.760;2023-07-13T08:00:23;10.35;;;3.10;;
30020;SDS011;16861;52.294;7.760;2023-07-13T08:02:53;8.48;;;2.80;;
30020;SDS011;16861;52.294;7.760;2023-07-13T08:05:22;6.28;;;2.47;;
30020;SDS011;16861;52.294;7.760;2023-07-13T08:08:04;7.07;;;2.45;;
30020;SDS011;16861;52.294;7.760;2023-07-13T08:10:31;7.07;;;2.65;;
30020;SDS011;16861;52.294;7.760;2023-07-13T08:12:58;4.55;;;2.40;;
30020;SDS011;16861;52.294;7.760;2023-07-13T08:15:27;6.38;;;2.80;;
30020;SDS011;16861;52.294;7.760;2023-07-13T08:17:54;5.35;;;2.95;;
30020;SDS011;16861;52.294;7.760;2023-07-13T08:20:22;8.63;;;3.17;;
30020;SDS011;16861;52.294;7.760;2023-07-13T08:22:49;6.13;;;2.60;;
30020;SDS011;16861;52.294;7.760;2023-07-13T08:25:16;6.55;;;2.67;;
30020;SDS011;16861;52.294;7.760;2023-07-13T08:27:43;5.80;;;2.75;;
30020;SDS011;16861;52.294;7.760;2023-07-13T08:30:10;10.02;;;2.80;;
30020;SDS011;16861;52.294;7.760;2023-07-13T08:32:36;10.50;;;2.97;;
30020;SDS011;16861;52.294;7.760;2023-07-13T08:35:04;7.35;;;2.60;;
30020;SDS011;16861;52.294;7.760;2023-07-13T08:37:31;5.50;;;2.65;;
30020;SDS011;16861;52.294;7.760;2023-07-13T08:39:58;5.78;;;2.58;;
30020;SDS011;16861;52.294;7.760;2023-07-13T08:45:25;10.40;;;2.58;;
30020;SDS011;16861;52.294;7.760;2023-07-13T08:48:13;6.00;;;2.70;;
30020;SDS011;16861;52.294;7.760;2023-07-13T08:53:30;9.77;;;3.40;;
30020;SDS011;16861;52.294;7.760;2023-07-13T08:56:04;8.45;;;2.80;;
30020;SDS011;16861;52.294;7.760;2023-07-13T08:58:42;9.07;;;3.30;;
30020;SDS011;16861;52.294;7.760;2023-07-13T09:01:22;7.57;;;3.20;;
30020;SDS011;16861;52.294;7.760;2023-07-13T09:04:04;4.85;;;2.63;;
30020;SDS011;16861;52.294;7.760;2023-07-13T09:06:39;7.07;;;3.17;;
30020;SDS011;16861;52.294;7.760;2023-07-13T09:09:10;10.40;;;3.88;;
30020;SDS011;16861;52.294;7.760;2023-07-13T09:12:07;6.97;;;3.08;;
30020;SDS011;16861;52.294;7.760;2023-07-13T09:14:45;6.43;;;2.58;;
30020;SDS011;16861;52.294;7.760;2023-07-13T09:17:18;6.50;;;2.90;;
30020;SDS011;16861;52.294;7.760;2023-07-13T09:20:00;7.13;;;2.90;;
30020;SDS011;16861;52.294;7.760;2023-07-13T09:22:43;6.93;;;3.40;;
30020;SDS011;16861;52.294;7.760;2023-07-13T09:27:39;8.50;;;3.35;;
30020;SDS011;16861;52.294;7.760;2023-07-13T09:32:41;6.90;;;3.42;;
30020;SDS011;16861;52.294;7.760;2023-07-13T09:35:12;7.60;;;3.60;;
30020;SDS011;16861;52.294;7.760;2023-07-13T09:37:42;5.22;;;2.85;;
30020;SDS011;16861;52.294;7.760;2023-07-13T09:40:17;7.40;;;3.40;;
30020;SDS011;16861;52.294;7.760;2023-07-13T09:42:53;5.88;;;3.72;;
30020;SDS011;16861;52.294;7.760;2023-07-13T09:45:30;6.97;;;3.45;;
30020;SDS011;16861;52.294;7.760;2023-07-13T09:48:03;8.30;;;3.70;;
30020;SDS011;16861;52.294;7.760;2023-07-13T09:50:32;7.93;;;3.55;;
30020;SDS011;16861;52.294;7.760;2023-07-13T09:53:00;5.80;;;2.83;;
30020;SDS011;16861;52.294;7.760;2023-07-13T09:57:57;6.00;;;3.05;;
30020;SDS011;16861;52.294;7.760;2023-07-13T10:00:27;7.38;;;3.22;;
30020;SDS011;16861;52.294;7.760;2023-07-13T10:03:03;7.90;;;2.97;;
30020;SDS011;16861;52.294;7.760;2023-07-13T10:05:39;6.93;;;2.95;;
30020;SDS011;16861;52.294;7.760;2023-07-13T10:10:47;8.88;;;3.03;;
30020;SDS011;16861;52.294;7.760;2023-07-13T10:15:54;5.38;;;3.08;;
30020;SDS011;16861;52.294;7.760;2023-07-13T10:18:22;8.60;;;3.08;;
30020;SDS011;16861;52.294;7.760;2023-07-13T10:21:11;9.02;;;3.33;;
30020;SDS011;16861;52.294;7.760;2023-07-13T10:23:44;4.95;;;3.20;;
30020;SDS011;16861;52.294;7.760;2023-07-13T10:26:16;5.15;;;3.08;;
30020;SDS011;16861;52.294;7.760;2023-07-13T10:28:50;9.40;;;3.72;;
30020;SDS011;16861;52.294;7.760;2023-07-13T10:33:48;7.57;;;3.60;;
30020;SDS011;16861;52.294;7.760;2023-07-13T10:38:57;8.18;;;3.95;;
30020;SDS011;16861;52.294;7.760;2023-07-13T10:41:26;9.35;;;3.92;;
30020;SDS011;16861;52.294;7.760;2023-07-13T10:43:56;7.13;;;3.13;;
30020;SDS011;16861;52.294;7.760;2023-07-13T10:46:25;6.47;;;2.88;;
30020;SDS011;16861;52.294;7.760;2023-07-13T10:51:25;5.45;;;2.63;;
30020;SDS011;16861;52.294;7.760;2023-07-13T10:59:17;7.22;;;2.75;;
30020;SDS011;16861;52.294;7.760;2023-07-13T11:01:58;6.55;;;2.90;;
30020;SDS011;16861;52.294;7.760;2023-07-13T11:04:41;5.25;;;2.60;;
30020;SDS011;16861;52.294;7.760;2023-07-13T11:07:11;9.63;;;2.78;;
30020;SDS011;16861;52.294;7.760;2023-07-13T11:09:48;5.22;;;2.55;;
30020;SDS011;16861;52.294;7.760;2023-07-13T11:17:35;6.45;;;2.90;;
30020;SDS011;16861;52.294;7.760;2023-07-13T11:22:46;11.82;;;2.78;;
30020;SDS011;16861;52.294;7.760;2023-07-13T11:38:42;5.38;;;2.17;;
30020;SDS011;16861;52.294;7.760;2023-07-13T11:41:18;4.75;;;2.05;;
30020;SDS011;16861;52.294;7.760;2023-07-13T11:43:51;4.85;;;2.08;;
30020;SDS011;16861;52.294;7.760;2023-07-13T11:46:21;4.03;;;2.03;;
30020;SDS011;16861;52.294;7.760;2023-07-13T11:48:49;6.25;;;2.25;;
30020;SDS011;16861;52.294;7.760;2023-07-13T11:51:19;7.55;;;2.58;;
30020;SDS011;16861;52.294;7.760;2023-07-13T11:53:50;3.17;;;1.95;;
30020;SDS011;16861;52.294;7.760;2023-07-13T11:56:20;4.57;;;2.25;;
30020;SDS011;16861;52.294;7.760;2023-07-13T11:58:51;4.13;;;2.08;;
30020;SDS011;16861;52.294;7.760;2023-07-13T12:01:20;5.43;;;2.10;;
30020;SDS011;16861;52.294;7.760;2023-07-13T12:03:48;3.97;;;1.80;;
30020;SDS011;16861;52.294;7.760;2023-07-13T12:06:25;4.55;;;2.30;;
30020;SDS011;16861;52.294;7.760;2023-07-13T12:09:00;4.20;;;1.98;;
30020;SDS011;16861;52.294;7.760;2023-07-13T12:11:29;7.38;;;2.63;;
30020;SDS011;16861;52.294;7.760;2023-07-13T12:14:00;4.43;;;2.63;;
30020;SDS011;16861;52.294;7.760;2023-07-13T12:16:31;5.22;;;2.60;;
30020;SDS011;16861;52.294;7.760;2023-07-13T12:18:59;8.10;;;3.15;;
30020;SDS011;16861;52.294;7.760;2023-07-13T12:21:37;9.18;;;2.97;;
30020;SDS011;16861;52.294;7.760;2023-07-13T12:24:05;6.63;;;2.95;;
30020;SDS011;16861;52.294;7.760;2023-07-13T12:26:41;6.30;;;2.30;;
30020;SDS011;16861;52.294;7.760;2023-07-13T12:29:10;4.28;;;2.20;;
30020;SDS011;16861;52.294;7.760;2023-07-13T12:31:46;8.13;;;2.03;;
30020;SDS011;16861;52.294;7.760;2023-07-13T12:34:15;4.80;;;2.00;;
30020;SDS011;16861;52.294;7.760;2023-07-13T12:36:51;6.60;;;2.15;;
30020;SDS011;16861;52.294;7.760;2023-07-13T12:39:38;3.58;;;2.33;;
30020;SDS011;16861;52.294;7.760;2023-07-13T12:42:24;2.53;;;1.67;;
30020;SDS011;16861;52.294;7.760;2023-07-13T12:44:57;5.07;;;1.85;;
30020;SDS011;16861;52.294;7.760;2023-07-13T12:47:28;3.08;;;1.83;;
30020;SDS011;16861;52.294;7.760;2023-07-13T12:49:57;2.72;;;2.00;;
30020;SDS011;16861;52.294;7.760;2023-07-13T12:52:28;3.55;;;1.90;;
30020;SDS011;16861;52.294;7.760;2023-07-13T12:54:58;3.53;;;2.10;;
30020;SDS011;16861;52.294;7.760;2023-07-13T12:57:32;2.75;;;2.03;;
30020;SDS011;16861;52.294;7.760;2023-07-13T13:00:04;3.22;;;2.00;;
30020;SDS011;16861;52.294;7.760;2023-07-13T13:02:37;3.33;;;2.05;;
30020;SDS011;16861;52.294;7.760;2023-07-13T13:05:04;5.63;;;2.20;;
30020;SDS011;16861;52.294;7.760;2023-07-13T13:07:31;4.32;;;2.17;;
30020;SDS011;16861;52.294;7.760;2023-07-13T13:09:57;3.67;;;2.13;;
30020;SDS011;16861;52.294;7.760;2023-07-13T13:12:24;3.83;;;2.47;;
30020;SDS011;16861;52.294;7.760;2023-07-13T13:14:52;3.83;;;2.25;;
30020;SDS011;16861;52.294;7.760;2023-07-13T13:17:19;3.88;;;2.40;;
30020;SDS011;16861;52.294;7.760;2023-07-13T13:19:50;5.80;;;2.53;;
30020;SDS011;16861;52.294;7.760;2023-07-13T13:22:19;6.07;;;2.95;;
30020;SDS011;16861;52.294;7.760;2023-07-13T13:24:46;4.10;;;2.35;;
30020;SDS011;16861;52.294;7.760;2023-07-13T13:27:22;4.20;;;2.10;;
30020;SDS011;16861;52.294;7.760;2023-07-13T13:29:52;3.05;;;2.00;;
30020;SDS011;16861;52.294;7.760;2023-07-13T13:32:19;4.07;;;2.55;;
30020;SDS011;16861;52.294;7.760;2023-07-13T13:34:45;9.40;;;2.78;;
30020;SDS011;16861;52.294;7.760;2023-07-13T13:37:19;4.22;;;2.85;;
30020;SDS011;16861;52.294;7.760;2023-07-13T13:39:50;4.05;;;2.80;;
30020;SDS011;16861;52.294;7.760;2023-07-13T13:42:33;5.18;;;3.17;;
30020;SDS011;16861;52.294;7.760;2023-07-13T13:45:00;7.25;;;2.90;;
30020;SDS011;16861;52.294;7.760;2023-07-13T13:47:31;5.80;;;3.30;;
30020;SDS011;16861;52.294;7.760;2023-07-13T13:49:59;5.10;;;3.53;;
30020;SDS011;16861;52.294;7.760;2023-07-13T13:52:26;5.22;;;3.50;;
30020;SDS011;16861;52.294;7.760;2023-07-13T13:54:53;5.70;;;3.78;;
30020;SDS011;16861;52.294;7.760;2023-07-13T13:57:23;6.07;;;3.85;;
30020;SDS011;16861;52.294;7.760;2023-07-13T13:59:51;5.57;;;3.55;;
30020;SDS011;16861;52.294;7.760;2023-07-13T14:02:23;4.18;;;3.13;;
30020;SDS011;16861;52.294;7.760;2023-07-13T14:04:56;3.60;;;2.92;;
30020;SDS011;16861;52.294;7.760;2023-07-13T14:07:25;4.18;;;3.08;;
30020;SDS011;16861;52.294;7.760;2023-07-13T14:09:54;4.28;;;2.78;;
30020;SDS011;16861;52.294;7.760;2023-07-13T14:12:22;4.38;;;2.78;;
30020;SDS011;16861;52.294;7.760;2023-07-13T14:14:52;6.43;;;2.95;;
30020;SDS011;16861;52.294;7.760;2023-07-13T14:17:21;3.60;;;2.78;;
30020;SDS011;16861;52.294;7.760;2023-07-13T14:19:50;3.40;;;2.70;;
30020;SDS011;16861;52.294;7.760;2023-07-13T14:22:23;4.07;;;2.67;;
30020;SDS011;16861;52.294;7.760;2023-07-13T14:24:53;4.88;;;3.00;;
30020;SDS011;16861;52.294;7.760;2023-07-13T14:27:21;4.10;;;2.40;;
30020;SDS011;16861;52.294;7.760;2023-07-13T14:29:47;3.10;;;2.58;;
30020;SDS011;16861;52.294;7.760;2023-07-13T14:32:14;3.58;;;2.10;;
30020;SDS011;16861;52.294;7.760;2023-07-13T14:34:40;4.15;;;2.30;;
30020;SDS011;16861;52.294;7.760;2023-07-13T14:37:12;3.20;;;1.80;;
30020;SDS011;16861;52.294;7.760;2023-07-13T14:39:40;2.88;;;1.85;;
30020;SDS011;16861;52.294;7.760;2023-07-13T14:45:12;2.90;;;1.67;;
30020;SDS011;16861;52.294;7.760;2023-07-13T14:47:43;3.80;;;1.58;;
30020;SDS011;16861;52.294;7.760;2023-07-13T14:50:17;2.78;;;1.65;;
30020;SDS011;16861;52.294;7.760;2023-07-13T14:52:47;3.53;;;1.60;;
30020;SDS011;16861;52.294;7.760;2023-07-13T14:55:15;2.63;;;1.35;;
30020;SDS011;16861;52.294;7.760;2023-07-13T14:57:45;1.83;;;1.25;;
30020;SDS011;16861;52.294;7.760;2023-07-13T15:00:16;2.08;;;1.38;;
30020;SDS011;16861;52.294;7.760;2023-07-13T15:02:45;2.45;;;1.67;;
30020;SDS011;16861;52.294;7.760;2023-07-13T15:05:18;2.88;;;1.40;;
30020;SDS011;16861;52.294;7.760;2023-07-13T15:07:49;6.95;;;1.63;;
30020;SDS011;16861;52.294;7.760;2023-07-13T15:10:17;2.10;;;1.45;;
30020;SDS011;16861;52.294;7.760;2023-07-13T15:12:44;2.83;;;1.77;;
30020;SDS011;16861;52.294;7.760;2023-07-13T15:15:11;3.60;;;1.65;;
30020;SDS011;16861;52.294;7.760;2023-07-13T15:17:43;4.38;;;1.48;;
30020;SDS011;16861;52.294;7.760;2023-07-13T15:22:38;2.60;;;1.45;;
30020;SDS011;16861;52.294;7.760;2023-07-13T15:25:16;5.68;;;1.50;;
30020;SDS011;16861;52.294;7.760;2023-07-13T15:27:45;2.33;;;1.50;;
30020;SDS011;16861;52.294;7.760;2023-07-13T15:30:12;4.10;;;2.03;;
30020;SDS011;16861;52.294;7.760;2023-07-13T15:32:44;4.85;;;1.75;;
30020;SDS011;16861;52.294;7.760;2023-07-13T15:35:15;2.67;;;1.70;;
30020;SDS011;16861;52.294;7.760;2023-07-13T15:37:43;3.35;;;1.70;;
30020;SDS011;16861;52.294;7.760;2023-07-13T15:40:10;1.88;;;1.33;;
30020;SDS011;16861;52.294;7.760;2023-07-13T15:42:39;1.83;;;1.63;;
30020;SDS011;16861;52.294;7.760;2023-07-13T15:45:17;4.47;;;1.88;;
30020;SDS011;16861;52.294;7.760;2023-07-13T15:47:46;3.42;;;1.85;;
30020;SDS011;16861;52.294;7.760;2023-07-13T15:50:23;3.42;;;1.67;;
30020;SDS011;16861;52.294;7.760;2023-07-13T15:52:52;2.70;;;1.63;;
30020;SDS011;16861;52.294;7.760;2023-07-13T15:55:21;4.38;;;1.77;;
30020;SDS011;16861;52.294;7.760;2023-07-13T15:57:48;3.10;;;1.55;;
30020;SDS011;16861;52.294;7.760;2023-07-13T16:00:26;2.55;;;1.52;;
30020;SDS011;16861;52.294;7.760;2023-07-13T16:02:53;2.45;;;1.52;;
30020;SDS011;16861;52.294;7.760;2023-07-13T16:05:20;2.40;;;1.60;;
30020;SDS011;16861;52.294;7.760;2023-07-13T16:07:50;2.70;;;1.52;;
30020;SDS011;16861;52.294;7.760;2023-07-13T16:10:21;3.72;;;1.83;;